sensor_id;sensor_type;location;lat;lon;timestamp;temperature;humidity
20370;DHT22;10344;47.592;9.600;2023-12-28T00:00:38;1.00;99.90
20370;DHT22;10344;47.592;9.600;2023-12-28T00:03:05;1.00;99.90
20370;DHT22;10344;47.592;9.600;2023-12-28T00:05:31;1.00;99.90
20370;DHT22;10344;47.592;9.600;2023-12-28T00:07:57;1.00;99.90
20370;DHT22;10344;47.592;9.600;2023-12-28T00:10:24;1.00;99.90
20370;DHT22;10344;47.592;9.600;2023-12-28T00:12:50;1.10;99.90
20370;DHT22;10344;47.592;9.600;2023-12-28T00:15:15;1.10;99.90
20370;DHT22;10344;47.592;9.600;2023-12-28T00:17:41;1.10;99.90
20370;DHT22;10344;47.592;9.600;2023-12-28T00:20:09;1.20;99.90
20370;DHT22;10344;47.592;9.600;2023-12-28T00:22:38;1.10;99.90
20370;DHT22;10344;47.592;9.600;2023-12-28T00:25:04;1.10;99.90
20370;DHT22;10344;47.592;9.600;2023-12-28T00:27:30;1.00;99.90
20370;DHT22;10344;47.592;9.600;2023-12-28T00:29:56;1.00;99.90
20370;DHT22;10344;47.592;9.600;2023-12-28T00:32:21;0.90;99.90
20370;DHT22;10344;47.592;9.600;2023-12-28T00:34:47;0.90;99.90
20370;DHT22;10344;47.592;9.600;2023-12-28T00:37:16;0.90;99.90
20370;DHT22;10344;47.592;9.600;2023-12-28T00:39:41;0.90;99.90
20370;DHT22;10344;47.592;9.600;2023-12-28T00:42:07;0.80;99.90
20370;DHT22;10344;47.592;9.600;2023-12-28T00:44:32;0.90;99.90
20370;DHT22;10344;47.592;9.600;2023-12-28T00:46:58;1.00;99.90
20370;DHT22;10344;47.592;9.600;2023-12-28T00:49:24;0.90;99.90
20370;DHT22;10344;47.592;9.600;2023-12-28T00:51:49;0.90;99.90
20370;DHT22;10344;47.592;9.600;2023-12-28T00:54:15;0.90;99.90
20370;DHT22;10344;47.592;9.600;2023-12-28T00:56:40;0.80;99.90
20370;DHT22;10344;47.592;9.600;2023-12-28T00:59:08;0.80;99.90
20370;DHT22;10344;47.592;9.600;2023-12-28T01:01:34;0.70;99.90
20370;DHT22;10344;47.592;9.600;2023-12-28T01:03:59;0.70;99.90
20370;DHT22;10344;47.592;9.600;2023-12-28T01:06:27;0.80;99.90
20370;DHT22;10344;47.592;9.600;2023-12-28T01:08:55;0.90;99.90
20370;DHT22;10344;47.592;9.600;2023-12-28T01:11:20;0.90;99.90
20370;DHT22;10344;47.592;9.600;2023-12-28T01:13:51;0.80;99.90
20370;DHT22;10344;47.592;9.600;2023-12-28T01:16:16;0.80;99.90
20370;DHT22;10344;47.592;9.600;2023-12-28T01:18:42;0.80;99.90
20370;DHT22;10344;47.592;9.600;2023-12-28T01:21:08;0.70;99.90
20370;DHT22;10344;47.592;9.600;2023-12-28T01:23:34;0.70;99.90
20370;DHT22;10344;47.592;9.600;2023-12-28T01:26:01;0.70;99.90
20370;DHT22;10344;47.592;9.600;2023-12-28T01:28:30;0.70;99.90
20370;DHT22;10344;47.592;9.600;2023-12-28T01:31:23;0.60;99.90
20370;DHT22;10344;47.592;9.600;2023-12-28T01:33:49;0.80;99.90
20370;DHT22;10344;47.592;9.600;2023-12-28T01:36:19;0.90;99.90
20370;DHT22;10344;47.592;9.600;2023-12-28T01:38:45;0.80;99.90
20370;DHT22;10344;47.592;9.600;2023-12-28T01:41:11;0.90;99.90
20370;DHT22;10344;47.592;9.600;2023-12-28T01:43:38;0.90;99.90
20370;DHT22;10344;47.592;9.600;2023-12-28T01:46:09;0.90;99.90
20370;DHT22;10344;47.592;9.600;2023-12-28T01:48:36;0.90;99.90
20370;DHT22;10344;47.592;9.600;2023-12-28T01:51:02;0.80;99.90
20370;DHT22;10344;47.592;9.600;2023-12-28T01:53:30;0.70;99.90
20370;DHT22;10344;47.592;9.600;2023-12-28T01:55:56;0.60;99.90
20370;DHT22;10344;47.592;9.600;2023-12-28T01:58:25;0.50;99.90
20370;DHT22;10344;47.592;9.600;2023-12-28T02:00:52;0.60;99.90
20370;DHT22;10344;47.592;9.600;2023-12-28T02:03:17;0.50;99.90
20370;DHT22;10344;47.592;9.600;2023-12-28T02:05:43;0.50;99.90
20370;DHT22;10344;47.592;9.600;2023-12-28T02:08:08;0.60;99.90
20370;DHT22;10344;47.592;9.600;2023-12-28T02:10:34;0.50;99.90
20370;DHT22;10344;47.592;9.600;2023-12-28T02:13:00;0.50;99.90
20370;DHT22;10344;47.592;9.600;2023-12-28T02:15:26;0.50;99.90
20370;DHT22;10344;47.592;9.600;2023-12-28T02:20:21;0.50;99.90
20370;DHT22;10344;47.592;9.600;2023-12-28T02:22:47;0.70;99.90
20370;DHT22;10344;47.592;9.600;2023-12-28T02:25:13;0.60;99.90
20370;DHT22;10344;47.592;9.600;2023-12-28T02:27:45;0.60;99.90
20370;DHT22;10344;47.592;9.600;2023-12-28T02:30:13;0.60;99.90
20370;DHT22;10344;47.592;9.600;2023-12-28T02:33:10;0.60;99.90
20370;DHT22;10344;47.592;9.600;2023-12-28T02:35:42;0.60;99.90
20370;DHT22;10344;47.592;9.600;2023-12-28T02:38:10;0.60;99.90
20370;DHT22;10344;47.592;9.600;2023-12-28T02:40:38;0.60;99.90
20370;DHT22;10344;47.592;9.600;2023-12-28T02:43:08;0.50;99.90
20370;DHT22;10344;47.592;9.600;2023-12-28T02:45:34;0.50;99.90
20370;DHT22;10344;47.592;9.600;2023-12-28T02:48:00;0.50;99.90
20370;DHT22;10344;47.592;9.600;2023-12-28T02:50:26;0.40;99.90
20370;DHT22;10344;47.592;9.600;2023-12-28T02:52:52;0.40;99.90
20370;DHT22;10344;47.592;9.600;2023-12-28T02:55:17;0.50;99.90
20370;DHT22;10344;47.592;9.600;2023-12-28T02:57:44;0.60;99.90
20370;DHT22;10344;47.592;9.600;2023-12-28T03:00:10;0.80;99.90
20370;DHT22;10344;47.592;9.600;2023-12-28T03:02:38;0.90;99.90
20370;DHT22;10344;47.592;9.600;2023-12-28T03:05:07;0.90;99.90
20370;DHT22;10344;47.592;9.600;2023-12-28T03:07:33;1.10;99.90
20370;DHT22;10344;47.592;9.600;2023-12-28T03:10:02;1.10;99.90
20370;DHT22;10344;47.592;9.600;2023-12-28T03:12:29;1.10;99.90
20370;DHT22;10344;47.592;9.600;2023-12-28T03:14:55;1.40;99.90
20370;DHT22;10344;47.592;9.600;2023-12-28T03:17:20;1.50;99.90
20370;DHT22;10344;47.592;9.600;2023-12-28T03:19:48;1.50;99.90
20370;DHT22;10344;47.592;9.600;2023-12-28T03:22:14;1.50;99.90
20370;DHT22;10344;47.592;9.600;2023-12-28T03:24:39;1.40;99.90
20370;DHT22;10344;47.592;9.600;2023-12-28T03:27:06;1.40;99.90
20370;DHT22;10344;47.592;9.600;2023-12-28T03:29:31;1.30;99.90
20370;DHT22;10344;47.592;9.600;2023-12-28T03:31:57;1.30;99.90
20370;DHT22;10344;47.592;9.600;2023-12-28T03:34:23;1.30;99.90
20370;DHT22;10344;47.592;9.600;2023-12-28T03:36:49;1.20;99.90
20370;DHT22;10344;47.592;9.600;2023-12-28T03:39:15;1.20;99.90
20370;DHT22;10344;47.592;9.600;2023-12-28T03:41:41;1.10;99.90
20370;DHT22;10344;47.592;9.600;2023-12-28T03:44:09;1.10;99.90
20370;DHT22;10344;47.592;9.600;2023-12-28T03:46:34;1.00;99.90
20370;DHT22;10344;47.592;9.600;2023-12-28T03:49:00;0.90;99.90
20370;DHT22;10344;47.592;9.600;2023-12-28T03:51:28;0.90;99.90
20370;DHT22;10344;47.592;9.600;2023-12-28T03:53:56;1.00;99.90
20370;DHT22;10344;47.592;9.600;2023-12-28T03:56:25;1.10;99.90
20370;DHT22;10344;47.592;9.600;2023-12-28T03:58:51;1.10;99.90
20370;DHT22;10344;47.592;9.600;2023-12-28T04:01:21;1.10;99.90
20370;DHT22;10344;47.592;9.600;2023-12-28T04:03:49;1.10;99.90
20370;DHT22;10344;47.592;9.600;2023-12-28T04:06:15;1.10;99.90
20370;DHT22;10344;47.592;9.600;2023-12-28T04:08:42;1.10;99.90
20370;DHT22;10344;47.592;9.600;2023-12-28T04:11:08;0.90;99.90
20370;DHT22;10344;47.592;9.600;2023-12-28T04:13:34;0.90;99.90
20370;DHT22;10344;47.592;9.600;2023-12-28T04:16:02;0.70;99.90
20370;DHT22;10344;47.592;9.600;2023-12-28T04:18:27;0.70;99.90
20370;DHT22;10344;47.592;9.600;2023-12-28T04:20:55;0.60;99.90
20370;DHT22;10344;47.592;9.600;2023-12-28T04:23:21;0.60;99.90
20370;DHT22;10344;47.592;9.600;2023-12-28T04:25:46;0.60;99.90
20370;DHT22;10344;47.592;9.600;2023-12-28T04:28:13;0.60;99.90
20370;DHT22;10344;47.592;9.600;2023-12-28T04:30:38;0.60;99.90
20370;DHT22;10344;47.592;9.600;2023-12-28T04:33:06;0.70;99.90
20370;DHT22;10344;47.592;9.600;2023-12-28T04:35:34;0.70;99.90
20370;DHT22;10344;47.592;9.600;2023-12-28T04:38:00;0.80;99.90
20370;DHT22;10344;47.592;9.600;2023-12-28T04:40:25;0.70;99.90
20370;DHT22;10344;47.592;9.600;2023-12-28T04:42:51;0.70;99.90
20370;DHT22;10344;47.592;9.600;2023-12-28T04:45:16;0.70;99.90
20370;DHT22;10344;47.592;9.600;2023-12-28T04:47:42;0.70;99.90
20370;DHT22;10344;47.592;9.600;2023-12-28T04:50:08;0.70;99.90
20370;DHT22;10344;47.592;9.600;2023-12-28T04:52:33;0.70;99.90
20370;DHT22;10344;47.592;9.600;2023-12-28T04:54:59;0.60;99.90
20370;DHT22;10344;47.592;9.600;2023-12-28T04:57:25;0.60;99.90
20370;DHT22;10344;47.592;9.600;2023-12-28T04:59:52;0.60;99.90
20370;DHT22;10344;47.592;9.600;2023-12-28T05:02:17;0.60;99.90
20370;DHT22;10344;47.592;9.600;2023-12-28T05:04:45;0.60;99.90
20370;DHT22;10344;47.592;9.600;2023-12-28T05:07:13;0.60;99.90
20370;DHT22;10344;47.592;9.600;2023-12-28T05:09:39;0.70;99.90
20370;DHT22;10344;47.592;9.600;2023-12-28T05:12:04;0.60;99.90
20370;DHT22;10344;47.592;9.600;2023-12-28T05:14:32;0.60;99.90
20370;DHT22;10344;47.592;9.600;2023-12-28T05:17:04;0.60;99.90
20370;DHT22;10344;47.592;9.600;2023-12-28T05:19:29;0.70;99.90
20370;DHT22;10344;47.592;9.600;2023-12-28T05:21:55;0.70;99.90
20370;DHT22;10344;47.592;9.600;2023-12-28T05:24:23;0.70;99.90
20370;DHT22;10344;47.592;9.600;2023-12-28T05:26:48;0.80;99.90
20370;DHT22;10344;47.592;9.600;2023-12-28T05:29:14;0.80;99.90
20370;DHT22;10344;47.592;9.600;2023-12-28T05:31:39;0.70;99.90
20370;DHT22;10344;47.592;9.600;2023-12-28T05:34:05;0.70;99.90
20370;DHT22;10344;47.592;9.600;2023-12-28T05:36:33;0.70;99.90
20370;DHT22;10344;47.592;9.600;2023-12-28T05:38:59;0.90;99.90
20370;DHT22;10344;47.592;9.600;2023-12-28T05:41:24;0.90;99.90
20370;DHT22;10344;47.592;9.600;2023-12-28T05:43:50;0.90;99.90
20370;DHT22;10344;47.592;9.600;2023-12-28T05:46:15;1.00;99.90
20370;DHT22;10344;47.592;9.600;2023-12-28T05:48:41;1.00;99.90
20370;DHT22;10344;47.592;9.600;2023-12-28T05:51:07;1.00;99.90
20370;DHT22;10344;47.592;9.600;2023-12-28T05:53:35;1.00;99.90
20370;DHT22;10344;47.592;9.600;2023-12-28T05:56:01;1.10;99.90
20370;DHT22;10344;47.592;9.600;2023-12-28T05:58:29;1.30;99.90
20370;DHT22;10344;47.592;9.600;2023-12-28T06:00:55;1.30;99.90
20370;DHT22;10344;47.592;9.600;2023-12-28T06:03:20;1.40;99.90
20370;DHT22;10344;47.592;9.600;2023-12-28T06:05:48;1.40;99.90
20370;DHT22;10344;47.592;9.600;2023-12-28T06:08:14;1.40;99.90
20370;DHT22;10344;47.592;9.600;2023-12-28T06:10:40;1.30;99.90
20370;DHT22;10344;47.592;9.600;2023-12-28T06:13:05;1.30;99.90
20370;DHT22;10344;47.592;9.600;2023-12-28T06:15:34;1.20;99.90
20370;DHT22;10344;47.592;9.600;2023-12-28T06:18:00;1.10;99.90
20370;DHT22;10344;47.592;9.600;2023-12-28T06:20:28;1.10;99.90
20370;DHT22;10344;47.592;9.600;2023-12-28T06:22:56;1.10;99.90
20370;DHT22;10344;47.592;9.600;2023-12-28T06:25:21;1.10;99.90
20370;DHT22;10344;47.592;9.600;2023-12-28T06:27:47;1.00;99.90
20370;DHT22;10344;47.592;9.600;2023-12-28T06:30:13;0.90;99.90
20370;DHT22;10344;47.592;9.600;2023-12-28T06:32:41;0.90;99.90
20370;DHT22;10344;47.592;9.600;2023-12-28T06:35:09;0.90;99.90
20370;DHT22;10344;47.592;9.600;2023-12-28T06:37:35;0.90;99.90
20370;DHT22;10344;47.592;9.600;2023-12-28T06:40:00;0.90;99.90
20370;DHT22;10344;47.592;9.600;2023-12-28T06:42:26;1.10;99.90
20370;DHT22;10344;47.592;9.600;2023-12-28T06:44:52;1.20;99.90
20370;DHT22;10344;47.592;9.600;2023-12-28T06:47:17;1.30;99.90
20370;DHT22;10344;47.592;9.600;2023-12-28T06:49:43;1.60;99.90
20370;DHT22;10344;47.592;9.600;2023-12-28T06:52:11;1.70;99.90
20370;DHT22;10344;47.592;9.600;2023-12-28T06:54:39;1.80;99.90
20370;DHT22;10344;47.592;9.600;2023-12-28T06:57:04;2.10;99.90
20370;DHT22;10344;47.592;9.600;2023-12-28T06:59:33;2.20;99.90
20370;DHT22;10344;47.592;9.600;2023-12-28T07:02:01;2.20;99.90
20370;DHT22;10344;47.592;9.600;2023-12-28T07:04:29;2.10;99.90
20370;DHT22;10344;47.592;9.600;2023-12-28T07:06:55;2.10;99.90
20370;DHT22;10344;47.592;9.600;2023-12-28T07:09:20;2.00;99.90
20370;DHT22;10344;47.592;9.600;2023-12-28T07:11:46;2.00;99.90
20370;DHT22;10344;47.592;9.600;2023-12-28T07:14:14;1.90;99.90
20370;DHT22;10344;47.592;9.600;2023-12-28T07:16:39;1.90;99.90
20370;DHT22;10344;47.592;9.600;2023-12-28T07:19:05;2.00;99.90
20370;DHT22;10344;47.592;9.600;2023-12-28T07:21:33;2.00;99.90
20370;DHT22;10344;47.592;9.600;2023-12-28T07:23:58;2.00;99.90
20370;DHT22;10344;47.592;9.600;2023-12-28T07:26:24;2.10;99.90
20370;DHT22;10344;47.592;9.600;2023-12-28T07:28:50;2.20;99.90
20370;DHT22;10344;47.592;9.600;2023-12-28T07:31:26;2.50;99.90
20370;DHT22;10344;47.592;9.600;2023-12-28T07:33:53;2.60;99.90
20370;DHT22;10344;47.592;9.600;2023-12-28T07:36:19;2.80;99.90
20370;DHT22;10344;47.592;9.600;2023-12-28T07:38:47;2.90;99.90
20370;DHT22;10344;47.592;9.600;2023-12-28T07:41:13;3.00;99.90
20370;DHT22;10344;47.592;9.600;2023-12-28T07:43:38;3.10;99.90
20370;DHT22;10344;47.592;9.600;2023-12-28T07:46:04;3.30;99.90
20370;DHT22;10344;47.592;9.600;2023-12-28T07:48:30;3.30;99.90
20370;DHT22;10344;47.592;9.600;2023-12-28T07:50:56;3.40;99.90
20370;DHT22;10344;47.592;9.600;2023-12-28T07:53:21;3.60;99.90
20370;DHT22;10344;47.592;9.600;2023-12-28T07:55:47;3.60;99.90
20370;DHT22;10344;47.592;9.600;2023-12-28T07:58:12;3.80;99.90
20370;DHT22;10344;47.592;9.600;2023-12-28T08:00:38;4.00;99.90
20370;DHT22;10344;47.592;9.600;2023-12-28T08:03:03;4.40;99.90
20370;DHT22;10344;47.592;9.600;2023-12-28T08:05:29;4.60;99.90
20370;DHT22;10344;47.592;9.600;2023-12-28T08:07:57;4.70;99.90
20370;DHT22;10344;47.592;9.600;2023-12-28T08:10:22;4.80;99.90
20370;DHT22;10344;47.592;9.600;2023-12-28T08:12:50;4.80;99.90
20370;DHT22;10344;47.592;9.600;2023-12-28T08:15:18;4.90;99.90
20370;DHT22;10344;47.592;9.600;2023-12-28T08:17:46;4.90;99.90
20370;DHT22;10344;47.592;9.600;2023-12-28T08:20:11;5.00;99.90
20370;DHT22;10344;47.592;9.600;2023-12-28T08:22:37;5.00;99.90
20370;DHT22;10344;47.592;9.600;2023-12-28T08:25:03;5.10;99.90
20370;DHT22;10344;47.592;9.600;2023-12-28T08:27:29;5.20;99.90
20370;DHT22;10344;47.592;9.600;2023-12-28T08:29:57;5.10;99.90
20370;DHT22;10344;47.592;9.600;2023-12-28T08:32:25;5.20;99.90
20370;DHT22;10344;47.592;9.600;2023-12-28T08:34:51;5.30;99.90
20370;DHT22;10344;47.592;9.600;2023-12-28T08:37:18;5.30;99.90
20370;DHT22;10344;47.592;9.600;2023-12-28T08:39:44;5.30;99.90
20370;DHT22;10344;47.592;9.600;2023-12-28T08:42:12;5.20;99.90
20370;DHT22;10344;47.592;9.600;2023-12-28T08:44:37;5.20;99.90
20370;DHT22;10344;47.592;9.600;2023-12-28T08:47:05;5.20;99.90
20370;DHT22;10344;47.592;9.600;2023-12-28T08:49:31;5.30;99.90
20370;DHT22;10344;47.592;9.600;2023-12-28T08:51:59;5.40;99.90
20370;DHT22;10344;47.592;9.600;2023-12-28T08:54:24;5.50;99.90
20370;DHT22;10344;47.592;9.600;2023-12-28T08:56:50;5.60;99.90
20370;DHT22;10344;47.592;9.600;2023-12-28T08:59:16;5.60;99.90
20370;DHT22;10344;47.592;9.600;2023-12-28T09:01:41;5.60;99.90
20370;DHT22;10344;47.592;9.600;2023-12-28T09:04:07;5.60;99.90
20370;DHT22;10344;47.592;9.600;2023-12-28T09:06:32;5.40;99.90
20370;DHT22;10344;47.592;9.600;2023-12-28T09:09:00;5.40;99.90
20370;DHT22;10344;47.592;9.600;2023-12-28T09:11:29;5.50;99.90
20370;DHT22;10344;47.592;9.600;2023-12-28T09:13:55;5.50;99.90
20370;DHT22;10344;47.592;9.600;2023-12-28T09:16:20;5.60;99.90
20370;DHT22;10344;47.592;9.600;2023-12-28T09:18:46;5.70;99.90
20370;DHT22;10344;47.592;9.600;2023-12-28T09:21:12;5.60;99.90
20370;DHT22;10344;47.592;9.600;2023-12-28T09:23:37;5.60;99.90
20370;DHT22;10344;47.592;9.600;2023-12-28T09:26:04;5.60;99.90
20370;DHT22;10344;47.592;9.600;2023-12-28T09:28:33;5.50;99.90
20370;DHT22;10344;47.592;9.600;2023-12-28T09:31:00;5.50;99.90
20370;DHT22;10344;47.592;9.600;2023-12-28T09:33:26;5.50;99.90
20370;DHT22;10344;47.592;9.600;2023-12-28T09:35:52;5.50;99.90
20370;DHT22;10344;47.592;9.600;2023-12-28T09:38:18;5.50;99.90
20370;DHT22;10344;47.592;9.600;2023-12-28T09:40:44;5.70;99.90
20370;DHT22;10344;47.592;9.600;2023-12-28T09:43:24;5.80;99.90
20370;DHT22;10344;47.592;9.600;2023-12-28T09:45:53;5.90;99.90
20370;DHT22;10344;47.592;9.600;2023-12-28T09:48:22;6.00;99.90
20370;DHT22;10344;47.592;9.600;2023-12-28T09:50:52;6.10;99.90
20370;DHT22;10344;47.592;9.600;2023-12-28T09:53:27;6.10;99.90
20370;DHT22;10344;47.592;9.600;2023-12-28T09:55:57;6.10;99.90
20370;DHT22;10344;47.592;9.600;2023-12-28T09:58:24;6.30;99.90
20370;DHT22;10344;47.592;9.600;2023-12-28T10:00:51;6.40;99.90
20370;DHT22;10344;47.592;9.600;2023-12-28T10:03:19;6.40;99.90
20370;DHT22;10344;47.592;9.600;2023-12-28T10:05:45;6.40;99.90
20370;DHT22;10344;47.592;9.600;2023-12-28T10:08:14;6.40;99.90
20370;DHT22;10344;47.592;9.600;2023-12-28T10:10:42;6.40;99.90
20370;DHT22;10344;47.592;9.600;2023-12-28T10:13:16;6.40;99.90
20370;DHT22;10344;47.592;9.600;2023-12-28T10:15:43;6.50;99.90
20370;DHT22;10344;47.592;9.600;2023-12-28T10:18:11;6.40;99.90
20370;DHT22;10344;47.592;9.600;2023-12-28T10:20:38;6.40;99.90
20370;DHT22;10344;47.592;9.600;2023-12-28T10:23:04;6.40;99.90
20370;DHT22;10344;47.592;9.600;2023-12-28T10:25:31;6.40;99.90
20370;DHT22;10344;47.592;9.600;2023-12-28T10:27:57;6.40;99.90
20370;DHT22;10344;47.592;9.600;2023-12-28T10:30:23;6.40;99.90
20370;DHT22;10344;47.592;9.600;2023-12-28T10:32:49;6.50;99.90
20370;DHT22;10344;47.592;9.600;2023-12-28T10:35:15;6.50;99.90
20370;DHT22;10344;47.592;9.600;2023-12-28T10:37:41;6.60;99.90
20370;DHT22;10344;47.592;9.600;2023-12-28T10:40:08;6.70;99.90
20370;DHT22;10344;47.592;9.600;2023-12-28T10:42:46;6.70;99.90
20370;DHT22;10344;47.592;9.600;2023-12-28T10:45:16;6.60;99.90
20370;DHT22;10344;47.592;9.600;2023-12-28T10:47:51;6.60;99.90
20370;DHT22;10344;47.592;9.600;2023-12-28T10:50:23;6.70;99.90
20370;DHT22;10344;47.592;9.600;2023-12-28T10:52:56;6.70;99.90
20370;DHT22;10344;47.592;9.600;2023-12-28T10:55:39;6.60;99.90
20370;DHT22;10344;47.592;9.600;2023-12-28T10:58:18;6.60;99.90
20370;DHT22;10344;47.592;9.600;2023-12-28T11:01:02;6.40;99.90
20370;DHT22;10344;47.592;9.600;2023-12-28T11:03:34;6.30;99.90
20370;DHT22;10344;47.592;9.600;2023-12-28T11:06:03;6.30;99.90
20370;DHT22;10344;47.592;9.600;2023-12-28T11:08:32;6.20;99.90
20370;DHT22;10344;47.592;9.600;2023-12-28T11:10:59;6.20;99.90
20370;DHT22;10344;47.592;9.600;2023-12-28T11:13:30;6.20;99.90
20370;DHT22;10344;47.592;9.600;2023-12-28T11:15:58;6.10;99.90
20370;DHT22;10344;47.592;9.600;2023-12-28T11:18:29;6.10;99.90
20370;DHT22;10344;47.592;9.600;2023-12-28T11:20:58;6.10;99.90
20370;DHT22;10344;47.592;9.600;2023-12-28T11:23:26;6.10;99.90
20370;DHT22;10344;47.592;9.600;2023-12-28T11:25:52;6.00;99.90
20370;DHT22;10344;47.592;9.600;2023-12-28T11:28:17;6.00;99.90
20370;DHT22;10344;47.592;9.600;2023-12-28T11:30:43;6.00;99.90
20370;DHT22;10344;47.592;9.600;2023-12-28T11:33:11;6.00;99.90
20370;DHT22;10344;47.592;9.600;2023-12-28T11:35:39;6.00;99.90
20370;DHT22;10344;47.592;9.600;2023-12-28T11:38:08;6.00;99.90
20370;DHT22;10344;47.592;9.600;2023-12-28T11:40:42;6.10;99.90
20370;DHT22;10344;47.592;9.600;2023-12-28T11:43:21;6.10;99.90
20370;DHT22;10344;47.592;9.600;2023-12-28T11:45:55;6.10;99.90
20370;DHT22;10344;47.592;9.600;2023-12-28T11:48:25;6.10;99.90
20370;DHT22;10344;47.592;9.600;2023-12-28T11:50:55;6.00;99.90
20370;DHT22;10344;47.592;9.600;2023-12-28T11:53:22;6.10;99.90
20370;DHT22;10344;47.592;9.600;2023-12-28T11:55:47;6.10;99.90
20370;DHT22;10344;47.592;9.600;2023-12-28T11:58:13;6.10;99.90
20370;DHT22;10344;47.592;9.600;2023-12-28T12:00:40;6.10;99.90
20370;DHT22;10344;47.592;9.600;2023-12-28T12:03:06;6.20;99.90
20370;DHT22;10344;47.592;9.600;2023-12-28T12:05:32;6.20;99.90
20370;DHT22;10344;47.592;9.600;2023-12-28T12:07:57;6.30;99.90
20370;DHT22;10344;47.592;9.600;2023-12-28T12:10:23;6.30;99.90
20370;DHT22;10344;47.592;9.600;2023-12-28T12:12:52;6.30;99.90
20370;DHT22;10344;47.592;9.600;2023-12-28T12:15:18;6.40;99.90
20370;DHT22;10344;47.592;9.600;2023-12-28T12:17:46;6.50;99.90
20370;DHT22;10344;47.592;9.600;2023-12-28T12:20:15;6.50;99.90
20370;DHT22;10344;47.592;9.600;2023-12-28T12:22:40;6.60;99.90
20370;DHT22;10344;47.592;9.600;2023-12-28T12:25:08;6.70;99.90
20370;DHT22;10344;47.592;9.600;2023-12-28T12:27:36;6.80;99.90
20370;DHT22;10344;47.592;9.600;2023-12-28T12:30:04;6.80;99.90
20370;DHT22;10344;47.592;9.600;2023-12-28T12:32:30;6.90;99.90
20370;DHT22;10344;47.592;9.600;2023-12-28T12:34:57;7.10;99.90
20370;DHT22;10344;47.592;9.600;2023-12-28T12:37:23;7.20;99.90
20370;DHT22;10344;47.592;9.600;2023-12-28T12:39:49;7.30;99.90
20370;DHT22;10344;47.592;9.600;2023-12-28T12:42:18;7.40;99.90
20370;DHT22;10344;47.592;9.600;2023-12-28T12:44:46;7.40;99.90
20370;DHT22;10344;47.592;9.600;2023-12-28T12:47:13;7.30;99.90
20370;DHT22;10344;47.592;9.600;2023-12-28T12:49:38;7.30;99.90
20370;DHT22;10344;47.592;9.600;2023-12-28T12:52:06;7.40;99.90
20370;DHT22;10344;47.592;9.600;2023-12-28T12:54:32;7.40;99.90
20370;DHT22;10344;47.592;9.600;2023-12-28T12:56:58;7.40;99.90
20370;DHT22;10344;47.592;9.600;2023-12-28T12:59:27;7.40;99.90
20370;DHT22;10344;47.592;9.600;2023-12-28T13:01:52;7.40;99.90
20370;DHT22;10344;47.592;9.600;2023-12-28T13:04:19;7.30;99.90
20370;DHT22;10344;47.592;9.600;2023-12-28T13:06:45;7.10;99.90
20370;DHT22;10344;47.592;9.600;2023-12-28T13:09:11;7.10;99.90
20370;DHT22;10344;47.592;9.600;2023-12-28T13:11:37;7.10;99.90
20370;DHT22;10344;47.592;9.600;2023-12-28T13:14:03;7.00;99.90
20370;DHT22;10344;47.592;9.600;2023-12-28T13:16:32;7.00;99.90
20370;DHT22;10344;47.592;9.600;2023-12-28T13:18:58;6.90;99.90
20370;DHT22;10344;47.592;9.600;2023-12-28T13:21:23;6.90;99.90
20370;DHT22;10344;47.592;9.600;2023-12-28T13:23:51;6.90;99.90
20370;DHT22;10344;47.592;9.600;2023-12-28T13:26:19;6.90;99.90
20370;DHT22;10344;47.592;9.600;2023-12-28T13:28:45;6.90;99.90
20370;DHT22;10344;47.592;9.600;2023-12-28T13:31:11;6.90;99.90
20370;DHT22;10344;47.592;9.600;2023-12-28T13:33:39;6.80;99.90
20370;DHT22;10344;47.592;9.600;2023-12-28T13:36:05;6.80;99.90
20370;DHT22;10344;47.592;9.600;2023-12-28T13:38:30;6.80;99.90
20370;DHT22;10344;47.592;9.600;2023-12-28T13:40:58;6.70;99.90
20370;DHT22;10344;47.592;9.600;2023-12-28T13:43:24;6.70;99.90
20370;DHT22;10344;47.592;9.600;2023-12-28T13:45:52;6.70;99.90
20370;DHT22;10344;47.592;9.600;2023-12-28T13:48:18;6.60;99.90
20370;DHT22;10344;47.592;9.600;2023-12-28T13:50:45;6.60;99.90
20370;DHT22;10344;47.592;9.600;2023-12-28T13:53:11;6.60;99.90
20370;DHT22;10344;47.592;9.600;2023-12-28T13:55:37;6.60;99.90
20370;DHT22;10344;47.592;9.600;2023-12-28T13:58:02;6.50;99.90
20370;DHT22;10344;47.592;9.600;2023-12-28T14:00:29;6.50;99.90
20370;DHT22;10344;47.592;9.600;2023-12-28T14:02:57;6.50;99.90
20370;DHT22;10344;47.592;9.600;2023-12-28T14:05:26;6.60;99.90
20370;DHT22;10344;47.592;9.600;2023-12-28T14:07:52;6.60;99.90
20370;DHT22;10344;47.592;9.600;2023-12-28T14:10:20;6.60;99.90
20370;DHT22;10344;47.592;9.600;2023-12-28T14:12:46;6.50;99.90
20370;DHT22;10344;47.592;9.600;2023-12-28T14:15:11;6.50;99.90
20370;DHT22;10344;47.592;9.600;2023-12-28T14:17:40;6.50;99.90
20370;DHT22;10344;47.592;9.600;2023-12-28T14:20:06;6.50;99.90
20370;DHT22;10344;47.592;9.600;2023-12-28T14:22:35;6.50;99.90
20370;DHT22;10344;47.592;9.600;2023-12-28T14:25:00;6.60;99.90
20370;DHT22;10344;47.592;9.600;2023-12-28T14:27:29;6.70;99.90
20370;DHT22;10344;47.592;9.600;2023-12-28T14:29:56;6.70;99.90
20370;DHT22;10344;47.592;9.600;2023-12-28T14:32:22;6.70;99.90
20370;DHT22;10344;47.592;9.600;2023-12-28T14:34:48;6.60;99.90
20370;DHT22;10344;47.592;9.600;2023-12-28T14:37:19;6.40;99.90
20370;DHT22;10344;47.592;9.600;2023-12-28T14:39:45;6.30;99.90
20370;DHT22;10344;47.592;9.600;2023-12-28T14:42:10;6.30;99.90
20370;DHT22;10344;47.592;9.600;2023-12-28T14:44:36;6.20;99.90
20370;DHT22;10344;47.592;9.600;2023-12-28T14:47:04;6.40;99.90
20370;DHT22;10344;47.592;9.600;2023-12-28T14:49:30;6.60;99.90
20370;DHT22;10344;47.592;9.600;2023-12-28T14:51:59;6.70;99.90
20370;DHT22;10344;47.592;9.600;2023-12-28T14:54:24;6.70;99.90
20370;DHT22;10344;47.592;9.600;2023-12-28T14:56:50;6.70;99.90
20370;DHT22;10344;47.592;9.600;2023-12-28T14:59:15;6.60;99.90
20370;DHT22;10344;47.592;9.600;2023-12-28T15:01:43;6.60;99.90
20370;DHT22;10344;47.592;9.600;2023-12-28T15:04:09;6.50;99.90
20370;DHT22;10344;47.592;9.600;2023-12-28T15:06:35;6.40;99.90
20370;DHT22;10344;47.592;9.600;2023-12-28T15:09:01;6.30;99.90
20370;DHT22;10344;47.592;9.600;2023-12-28T15:11:29;6.20;99.90
20370;DHT22;10344;47.592;9.600;2023-12-28T15:13:55;6.10;99.90
20370;DHT22;10344;47.592;9.600;2023-12-28T15:16:21;6.10;99.90
20370;DHT22;10344;47.592;9.600;2023-12-28T15:18:47;6.20;99.90
20370;DHT22;10344;47.592;9.600;2023-12-28T15:21:13;6.30;99.90
20370;DHT22;10344;47.592;9.600;2023-12-28T15:23:39;6.30;99.90
20370;DHT22;10344;47.592;9.600;2023-12-28T15:26:05;6.20;99.90
20370;DHT22;10344;47.592;9.600;2023-12-28T15:28:33;6.10;99.90
20370;DHT22;10344;47.592;9.600;2023-12-28T15:30:58;6.00;99.90
20370;DHT22;10344;47.592;9.600;2023-12-28T15:33:24;6.10;99.90
20370;DHT22;10344;47.592;9.600;2023-12-28T15:35:52;6.10;99.90
20370;DHT22;10344;47.592;9.600;2023-12-28T15:38:18;6.10;99.90
20370;DHT22;10344;47.592;9.600;2023-12-28T15:40:45;6.00;99.90
20370;DHT22;10344;47.592;9.600;2023-12-28T15:43:10;6.00;99.90
20370;DHT22;10344;47.592;9.600;2023-12-28T15:45:37;5.90;99.90